sensor_id;sensor_type;location;lat;lon;timestamp;pressure;altitude;pressure_sealevel;temperature;humidity
65546;BME280;52177;55.968;37.498;2022-12-18T00:00:27;99348.69;;;-5.11;82.40
65546;BME280;52177;55.968;37.498;2022-12-18T00:00:57;99345.13;;;-5.08;82.46
65546;BME280;52177;55.968;37.498;2022-12-18T00:01:29;99345.13;;;-5.08;82.47
65546;BME280;52177;55.968;37.498;2022-12-18T00:01:59;99343.34;;;-5.07;82.25
65546;BME280;52177;55.968;37.498;2022-12-18T00:02:29;99339.81;;;-5.06;82.41
65546;BME280;52177;55.968;37.498;2022-12-18T00:02:59;99342.41;;;-5.06;82.41
65546;BME280;52177;55.968;37.498;2022-12-18T00:03:30;99342.41;;;-5.06;82.14
65546;BME280;52177;55.968;37.498;2022-12-18T00:04:01;99338.97;;;-5.07;82.24
65546;BME280;52177;55.968;37.498;2022-12-18T00:04:31;99338.16;;;-5.07;82.28
65546;BME280;52177;55.968;37.498;2022-12-18T00:05:02;99331.25;;;-5.09;82.31
65546;BME280;52177;55.968;37.498;2022-12-18T00:05:32;99329.59;;;-5.10;82.29
65546;BME280;52177;55.968;37.498;2022-12-18T00:06:02;99324.31;;;-5.08;82.12
65546;BME280;52177;55.968;37.498;2022-12-18T00:06:33;99332.94;;;-5.07;82.13
65546;BME280;52177;55.968;37.498;2022-12-18T00:07:03;99326.75;;;-5.05;82.11
65546;BME280;52177;55.968;37.498;2022-12-18T00:07:34;99326.81;;;-5.06;82.20
65546;BME280;52177;55.968;37.498;2022-12-18T00:08:05;99322.56;;;-5.07;82.18
65546;BME280;52177;55.968;37.498;2022-12-18T00:08:35;99322.56;;;-5.07;82.30
65546;BME280;52177;55.968;37.498;2022-12-18T00:09:05;99319.03;;;-5.06;82.12
65546;BME280;52177;55.968;37.498;2022-12-18T00:09:36;99328.31;;;-5.02;82.10
65546;BME280;52177;55.968;37.498;2022-12-18T00:10:06;99323.13;;;-5.02;81.97
65546;BME280;52177;55.968;37.498;2022-12-18T00:10:36;99315.50;;;-5.05;82.04
65546;BME280;52177;55.968;37.498;2022-12-18T00:11:08;99318.13;;;-5.05;82.08
65546;BME280;52177;55.968;37.498;2022-12-18T00:11:38;99314.84;;;-5.09;82.13
65546;BME280;52177;55.968;37.498;2022-12-18T00:12:08;99316.59;;;-5.10;81.99
65546;BME280;52177;55.968;37.498;2022-12-18T00:12:39;99311.34;;;-5.08;82.18
65546;BME280;52177;55.968;37.498;2022-12-18T00:13:09;99315.59;;;-5.07;82.19
65546;BME280;52177;55.968;37.498;2022-12-18T00:13:40;99310.31;;;-5.05;82.04
65546;BME280;52177;55.968;37.498;2022-12-18T00:14:11;99309.38;;;-5.04;82.06
65546;BME280;52177;55.968;37.498;2022-12-18T00:14:44;99309.38;;;-5.04;82.07
65546;BME280;52177;55.968;37.498;2022-12-18T00:15:14;99305.19;;;-5.07;81.99
65546;BME280;52177;55.968;37.498;2022-12-18T00:15:44;99311.41;;;-5.10;81.83
65546;BME280;52177;55.968;37.498;2022-12-18T00:16:16;99304.53;;;-5.11;82.08
65546;BME280;52177;55.968;37.498;2022-12-18T00:16:48;99302.78;;;-5.10;81.99
65546;BME280;52177;55.968;37.498;2022-12-18T00:17:18;99302.84;;;-5.12;81.97
65546;BME280;52177;55.968;37.498;2022-12-18T00:17:49;99302.84;;;-5.12;82.09
65546;BME280;52177;55.968;37.498;2022-12-18T00:18:19;99301.91;;;-5.11;82.17
65546;BME280;52177;55.968;37.498;2022-12-18T00:18:50;99288.66;;;-5.06;81.90
65546;BME280;52177;55.968;37.498;2022-12-18T00:19:21;99298.22;;;-5.06;81.90
65546;BME280;52177;55.968;37.498;2022-12-18T00:19:51;99294.72;;;-5.05;82.00
65546;BME280;52177;55.968;37.498;2022-12-18T00:20:21;99292.00;;;-5.04;81.84
65546;BME280;52177;55.968;37.498;2022-12-18T00:21:06;99288.59;;;-5.04;81.67
65546;BME280;52177;55.968;37.498;2022-12-18T00:21:41;99291.09;;;-5.03;81.58
65546;BME280;52177;55.968;37.498;2022-12-18T00:22:11;99286.81;;;-5.04;81.60
65546;BME280;52177;55.968;37.498;2022-12-18T00:22:41;99282.44;;;-5.03;81.59
65546;BME280;52177;55.968;37.498;2022-12-18T00:23:12;99279.97;;;-5.05;81.55
65546;BME280;52177;55.968;37.498;2022-12-18T00:23:42;99285.22;;;-5.06;81.55
65546;BME280;52177;55.968;37.498;2022-12-18T00:24:13;99287.00;;;-5.07;81.53
65546;BME280;52177;55.968;37.498;2022-12-18T00:24:44;99285.59;;;-5.13;81.51
65546;BME280;52177;55.968;37.498;2022-12-18T00:25:14;99292.47;;;-5.12;81.46
65546;BME280;52177;55.968;37.498;2022-12-18T00:25:44;99289.88;;;-5.12;81.65
65546;BME280;52177;55.968;37.498;2022-12-18T00:26:15;99283.09;;;-5.14;81.70
65546;BME280;52177;55.968;37.498;2022-12-18T00:26:46;99291.91;;;-5.17;81.83
65546;BME280;52177;55.968;37.498;2022-12-18T00:27:17;99284.94;;;-5.16;81.93
65546;BME280;52177;55.968;37.498;2022-12-18T00:27:47;99281.41;;;-5.15;81.86
65546;BME280;52177;55.968;37.498;2022-12-18T00:28:18;99290.19;;;-5.18;81.77
65546;BME280;52177;55.968;37.498;2022-12-18T00:28:49;99291.13;;;-5.19;81.84
65546;BME280;52177;55.968;37.498;2022-12-18T00:29:19;99290.19;;;-5.18;81.97
65546;BME280;52177;55.968;37.498;2022-12-18T00:29:49;99288.53;;;-5.19;81.98
65546;BME280;52177;55.968;37.498;2022-12-18T00:30:20;99280.75;;;-5.19;82.05
65546;BME280;52177;55.968;37.498;2022-12-18T00:30:50;99294.56;;;-5.18;82.11
65546;BME280;52177;55.968;37.498;2022-12-18T00:31:22;99274.63;;;-5.18;82.20
65546;BME280;52177;55.968;37.498;2022-12-18T00:31:53;99281.50;;;-5.17;82.10
65546;BME280;52177;55.968;37.498;2022-12-18T00:32:23;99283.16;;;-5.16;82.19
65546;BME280;52177;55.968;37.498;2022-12-18T00:32:54;99274.63;;;-5.18;82.04
65546;BME280;52177;55.968;37.498;2022-12-18T00:33:24;99279.81;;;-5.18;82.20
65546;BME280;52177;55.968;37.498;2022-12-18T00:33:54;99270.44;;;-5.20;82.13
65546;BME280;52177;55.968;37.498;2022-12-18T00:34:26;99286.19;;;-5.23;82.21
65546;BME280;52177;55.968;37.498;2022-12-18T00:34:56;99273.41;;;-5.26;82.35
65546;BME280;52177;55.968;37.498;2022-12-18T00:35:27;99285.44;;;-5.25;82.32
65546;BME280;52177;55.968;37.498;2022-12-18T00:36:01;99276.00;;;-5.26;82.50
65546;BME280;52177;55.968;37.498;2022-12-18T00:36:32;99277.00;;;-5.29;82.62
65546;BME280;52177;55.968;37.498;2022-12-18T00:37:03;99279.50;;;-5.27;82.63
65546;BME280;52177;55.968;37.498;2022-12-18T00:37:33;99272.47;;;-5.25;82.52
65546;BME280;52177;55.968;37.498;2022-12-18T00:38:04;99273.28;;;-5.25;82.63
65546;BME280;52177;55.968;37.498;2022-12-18T00:38:36;99263.09;;;-5.28;82.69
65546;BME280;52177;55.968;37.498;2022-12-18T00:39:06;99270.88;;;-5.28;82.67
65546;BME280;52177;55.968;37.498;2022-12-18T00:39:37;99269.94;;;-5.27;82.75
65546;BME280;52177;55.968;37.498;2022-12-18T00:40:07;99263.84;;;-5.26;82.89
65546;BME280;52177;55.968;37.498;2022-12-18T00:40:37;99269.88;;;-5.25;82.67
65546;BME280;52177;55.968;37.498;2022-12-18T00:41:09;99270.53;;;-5.22;82.83
65546;BME280;52177;55.968;37.498;2022-12-18T00:41:39;99269.59;;;-5.21;82.85
65546;BME280;52177;55.968;37.498;2022-12-18T00:42:28;99256.88;;;-5.25;82.55
65546;BME280;52177;55.968;37.498;2022-12-18T00:43:17;99269.88;;;-5.25;82.65
65546;BME280;52177;55.968;37.498;2022-12-18T00:43:47;99268.09;;;-5.25;82.76
65546;BME280;52177;55.968;37.498;2022-12-18T00:44:18;99259.41;;;-5.24;82.84
65546;BME280;52177;55.968;37.498;2022-12-18T00:44:48;99270.53;;;-5.22;82.72
65546;BME280;52177;55.968;37.498;2022-12-18T00:45:18;99263.56;;;-5.21;82.60
65546;BME280;52177;55.968;37.498;2022-12-18T00:45:48;99258.38;;;-5.21;82.72
65546;BME280;52177;55.968;37.498;2022-12-18T00:46:19;99264.41;;;-5.21;82.67
65546;BME280;52177;55.968;37.498;2022-12-18T00:46:49;99262.63;;;-5.20;82.60
65546;BME280;52177;55.968;37.498;2022-12-18T00:47:19;99264.41;;;-5.21;82.67
65546;BME280;52177;55.968;37.498;2022-12-18T00:47:49;99251.50;;;-5.22;82.45
65546;BME280;52177;55.968;37.498;2022-12-18T00:48:20;99255.84;;;-5.23;82.64
65546;BME280;52177;55.968;37.498;2022-12-18T00:48:50;99262.81;;;-5.23;82.50
65546;BME280;52177;55.968;37.498;2022-12-18T00:49:20;99260.22;;;-5.23;82.71
65546;BME280;52177;55.968;37.498;2022-12-18T00:49:51;99255.97;;;-5.24;82.70
65546;BME280;52177;55.968;37.498;2022-12-18T00:50:22;99255.84;;;-5.23;82.55
65546;BME280;52177;55.968;37.498;2022-12-18T00:50:52;99246.22;;;-5.21;82.62
65546;BME280;52177;55.968;37.498;2022-12-18T00:51:23;99252.16;;;-5.19;82.66
65546;BME280;52177;55.968;37.498;2022-12-18T00:51:56;99246.78;;;-5.16;82.62
65546;BME280;52177;55.968;37.498;2022-12-18T00:52:26;99245.88;;;-5.15;82.21
65546;BME280;52177;55.968;37.498;2022-12-18T00:52:56;99244.38;;;-5.19;82.25
65546;BME280;52177;55.968;37.498;2022-12-18T00:53:27;99245.47;;;-5.23;82.09
65546;BME280;52177;55.968;37.498;2022-12-18T00:53:57;99248.81;;;-5.21;82.32
65546;BME280;52177;55.968;37.498;2022-12-18T00:54:27;99238.41;;;-5.21;82.33
65546;BME280;52177;55.968;37.498;2022-12-18T00:54:57;99241.84;;;-5.20;82.32
65546;BME280;52177;55.968;37.498;2022-12-18T00:55:28;99244.56;;;-5.22;82.19
65546;BME280;52177;55.968;37.498;2022-12-18T00:55:58;99239.34;;;-5.22;82.21
65546;BME280;52177;55.968;37.498;2022-12-18T00:56:28;99240.25;;;-5.23;82.35
65546;BME280;52177;55.968;37.498;2022-12-18T00:56:58;99243.63;;;-5.21;82.35
65546;BME280;52177;55.968;37.498;2022-12-18T00:57:28;99241.03;;;-5.21;82.22
65546;BME280;52177;55.968;37.498;2022-12-18T00:57:59;99242.69;;;-5.20;82.22
65546;BME280;52177;55.968;37.498;2022-12-18T00:58:29;99243.53;;;-5.19;82.20
65546;BME280;52177;55.968;37.498;2022-12-18T00:58:59;99237.47;;;-5.20;82.22
65546;BME280;52177;55.968;37.498;2022-12-18T00:59:29;99237.41;;;-5.18;82.14
65546;BME280;52177;55.968;37.498;2022-12-18T01:00:00;99237.41;;;-5.18;82.19
65546;BME280;52177;55.968;37.498;2022-12-18T01:00:30;99238.22;;;-5.18;82.22
65546;BME280;52177;55.968;37.498;2022-12-18T01:01:01;99241.03;;;-5.21;81.96
65546;BME280;52177;55.968;37.498;2022-12-18T01:01:31;99240.09;;;-5.20;82.19
65546;BME280;52177;55.968;37.498;2022-12-18T01:02:02;99240.09;;;-5.20;82.26
65546;BME280;52177;55.968;37.498;2022-12-18T01:02:32;99237.31;;;-5.17;82.23
65546;BME280;52177;55.968;37.498;2022-12-18T01:03:03;99238.16;;;-5.16;81.98
65546;BME280;52177;55.968;37.498;2022-12-18T01:03:33;99237.31;;;-5.17;82.11
65546;BME280;52177;55.968;37.498;2022-12-18T01:04:04;99234.72;;;-5.17;82.15
65546;BME280;52177;55.968;37.498;2022-12-18T01:04:34;99233.97;;;-5.19;82.03
65546;BME280;52177;55.968;37.498;2022-12-18T01:05:04;99239.19;;;-5.19;81.99
65546;BME280;52177;55.968;37.498;2022-12-18T01:05:38;99233.97;;;-5.19;81.91
65546;BME280;52177;55.968;37.498;2022-12-18T01:06:09;99227.00;;;-5.18;81.90
65546;BME280;52177;55.968;37.498;2022-12-18T01:06:40;99233.91;;;-5.17;81.94
65546;BME280;52177;55.968;37.498;2022-12-18T01:07:10;99232.13;;;-5.17;81.91
65546;BME280;52177;55.968;37.498;2022-12-18T01:07:40;99234.72;;;-5.17;81.89
65546;BME280;52177;55.968;37.498;2022-12-18T01:08:11;99230.44;;;-5.18;81.88
65546;BME280;52177;55.968;37.498;2022-12-18T01:08:41;99232.22;;;-5.18;81.90
65546;BME280;52177;55.968;37.498;2022-12-18T01:09:12;99235.63;;;-5.18;81.91
65546;BME280;52177;55.968;37.498;2022-12-18T01:09:42;99231.19;;;-5.16;81.84
65546;BME280;52177;55.968;37.498;2022-12-18T01:10:12;99239.00;;;-5.16;81.65
65546;BME280;52177;55.968;37.498;2022-12-18T01:10:43;99232.13;;;-5.17;81.79
65546;BME280;52177;55.968;37.498;2022-12-18T01:11:14;99234.81;;;-5.18;81.72
65546;BME280;52177;55.968;37.498;2022-12-18T01:11:45;99234.88;;;-5.20;81.64
65546;BME280;52177;55.968;37.498;2022-12-18T01:12:15;99226.19;;;-5.19;81.57
65546;BME280;52177;55.968;37.498;2022-12-18T01:12:46;99234.53;;;-5.14;81.65
65546;BME280;52177;55.968;37.498;2022-12-18T01:13:16;99230.19;;;-5.13;81.45
65546;BME280;52177;55.968;37.498;2022-12-18T01:13:46;99229.34;;;-5.14;81.43
65546;BME280;52177;55.968;37.498;2022-12-18T01:14:16;99236.31;;;-5.14;81.45
65546;BME280;52177;55.968;37.498;2022-12-18T01:14:47;99228.59;;;-5.16;81.37
65546;BME280;52177;55.968;37.498;2022-12-18T01:15:17;99239.00;;;-5.16;81.42
65546;BME280;52177;55.968;37.498;2022-12-18T01:15:48;99224.16;;;-5.14;81.31
65546;BME280;52177;55.968;37.498;2022-12-18T01:16:19;99223.41;;;-5.16;81.34
65546;BME280;52177;55.968;37.498;2022-12-18T01:16:49;99229.63;;;-5.18;81.23
65546;BME280;52177;55.968;37.498;2022-12-18T01:17:19;99227.09;;;-5.20;81.43
65546;BME280;52177;55.968;37.498;2022-12-18T01:17:51;99228.84;;;-5.20;81.39
65546;BME280;52177;55.968;37.498;2022-12-18T01:18:21;99228.78;;;-5.19;81.58
65546;BME280;52177;55.968;37.498;2022-12-18T01:18:52;99220.03;;;-5.18;81.36
65546;BME280;52177;55.968;37.498;2022-12-18T01:19:23;99227.84;;;-5.18;81.43
65546;BME280;52177;55.968;37.498;2022-12-18T01:19:54;99225.25;;;-5.18;81.41
65546;BME280;52177;55.968;37.498;2022-12-18T01:20:24;99218.56;;;-5.22;81.43
65546;BME280;52177;55.968;37.498;2022-12-18T01:20:54;99218.38;;;-5.19;81.13
65546;BME280;52177;55.968;37.498;2022-12-18T01:21:24;99224.50;;;-5.20;81.26
65546;BME280;52177;55.968;37.498;2022-12-18T01:21:55;99216.25;;;-5.26;80.99
65546;BME280;52177;55.968;37.498;2022-12-18T01:22:25;99210.19;;;-5.27;81.08
65546;BME280;52177;55.968;37.498;2022-12-18T01:22:55;99205.94;;;-5.28;81.10
65546;BME280;52177;55.968;37.498;2022-12-18T01:23:28;99218.72;;;-5.25;81.02
65546;BME280;52177;55.968;37.498;2022-12-18T01:23:59;99216.13;;;-5.25;81.04
65546;BME280;52177;55.968;37.498;2022-12-18T01:24:29;99212.06;;;-5.29;81.00
65546;BME280;52177;55.968;37.498;2022-12-18T01:24:59;99215.66;;;-5.32;80.94
65546;BME280;52177;55.968;37.498;2022-12-18T01:25:29;99216.25;;;-5.26;81.08
65546;BME280;52177;55.968;37.498;2022-12-18T01:26:10;99212.91;;;-5.28;81.05
65546;BME280;52177;55.968;37.498;2022-12-18T01:26:40;99218.09;;;-5.28;80.93
65546;BME280;52177;55.968;37.498;2022-12-18T01:27:11;99214.66;;;-5.29;81.15
65546;BME280;52177;55.968;37.498;2022-12-18T01:27:41;99206.38;;;-5.36;81.08
65546;BME280;52177;55.968;37.498;2022-12-18T01:28:11;99204.78;;;-5.38;81.03
65546;BME280;52177;55.968;37.498;2022-12-18T01:28:42;99217.78;;;-5.38;81.16
65546;BME280;52177;55.968;37.498;2022-12-18T01:29:13;99213.59;;;-5.41;81.18
65546;BME280;52177;55.968;37.498;2022-12-18T01:29:43;99207.56;;;-5.41;81.22
65546;BME280;52177;55.968;37.498;2022-12-18T01:30:14;99210.06;;;-5.40;81.47
65546;BME280;52177;55.968;37.498;2022-12-18T01:30:44;99208.31;;;-5.39;81.40
65546;BME280;52177;55.968;37.498;2022-12-18T01:31:18;99209.06;;;-5.37;81.69
65546;BME280;52177;55.968;37.498;2022-12-18T01:31:49;99206.38;;;-5.36;81.66
65546;BME280;52177;55.968;37.498;2022-12-18T01:32:19;99203.78;;;-5.36;81.59
65546;BME280;52177;55.968;37.498;2022-12-18T01:32:49;99206.47;;;-5.37;81.69
65546;BME280;52177;55.968;37.498;2022-12-18T01:33:20;99202.09;;;-5.37;81.49
65546;BME280;52177;55.968;37.498;2022-12-18T01:33:50;99208.03;;;-5.35;81.70
65546;BME280;52177;55.968;37.498;2022-12-18T01:34:21;99207.84;;;-5.32;81.71
65546;BME280;52177;55.968;37.498;2022-12-18T01:34:51;99206.00;;;-5.30;81.56
65546;BME280;52177;55.968;37.498;2022-12-18T01:35:21;99200.06;;;-5.32;81.50
65546;BME280;52177;55.968;37.498;2022-12-18T01:35:52;99201.94;;;-5.34;81.34
65546;BME280;52177;55.968;37.498;2022-12-18T01:36:26;99206.38;;;-5.36;81.46
65546;BME280;52177;55.968;37.498;2022-12-18T01:36:56;99202.09;;;-5.37;81.33
65546;BME280;52177;55.968;37.498;2022-12-18T01:37:27;99201.06;;;-5.34;81.35
65546;BME280;52177;55.968;37.498;2022-12-18T01:37:57;99205.38;;;-5.33;81.51
65546;BME280;52177;55.968;37.498;2022-12-18T01:38:28;99207.84;;;-5.32;81.43
65546;BME280;52177;55.968;37.498;2022-12-18T01:38:59;99201.81;;;-5.32;81.53
65546;BME280;52177;55.968;37.498;2022-12-18T01:39:30;99203.53;;;-5.31;81.40
65546;BME280;52177;55.968;37.498;2022-12-18T01:40:02;99196.63;;;-5.32;81.34
65546;BME280;52177;55.968;37.498;2022-12-18T01:40:32;99200.06;;;-5.32;81.47
65546;BME280;52177;55.968;37.498;2022-12-18T01:41:02;99200.25;;;-5.35;81.35
65546;BME280;52177;55.968;37.498;2022-12-18T01:41:33;99203.66;;;-5.34;81.52
65546;BME280;52177;55.968;37.498;2022-12-18T01:42:22;99204.44;;;-5.32;81.47
65546;BME280;52177;55.968;37.498;2022-12-18T01:42:53;99204.44;;;-5.32;81.34
65546;BME280;52177;55.968;37.498;2022-12-18T01:43:40;99202.56;;;-5.30;81.27
65546;BME280;52177;55.968;37.498;2022-12-18T01:45:35;99195.88;;;-5.34;81.21
65546;BME280;52177;55.968;37.498;2022-12-18T01:46:05;99202.00;;;-5.35;81.10
65546;BME280;52177;55.968;37.498;2022-12-18T01:46:36;99202.91;;;-5.36;81.15
65546;BME280;52177;55.968;37.498;2022-12-18T01:47:06;99198.47;;;-5.34;81.05
65546;BME280;52177;55.968;37.498;2022-12-18T01:48:22;99194.22;;;-5.35;81.22
65546;BME280;52177;55.968;37.498;2022-12-18T01:48:53;99194.22;;;-5.35;81.10
65546;BME280;52177;55.968;37.498;2022-12-18T01:49:26;99188.19;;;-5.36;81.18
65546;BME280;52177;55.968;37.498;2022-12-18T01:49:56;99197.72;;;-5.36;81.03
65546;BME280;52177;55.968;37.498;2022-12-18T01:50:37;99183.06;;;-5.37;81.16
65546;BME280;52177;55.968;37.498;2022-12-18T01:51:09;99187.34;;;-5.36;81.21
65546;BME280;52177;55.968;37.498;2022-12-18T01:51:40;99188.34;;;-5.39;81.15
65546;BME280;52177;55.968;37.498;2022-12-18T01:52:10;99190.03;;;-5.38;81.10
65546;BME280;52177;55.968;37.498;2022-12-18T01:52:42;99183.16;;;-5.39;81.13
65546;BME280;52177;55.968;37.498;2022-12-18T01:53:14;99184.03;;;-5.38;81.02
65546;BME280;52177;55.968;37.498;2022-12-18T01:53:45;99179.66;;;-5.38;81.13
65546;BME280;52177;55.968;37.498;2022-12-18T01:54:16;99195.13;;;-5.36;81.16
65546;BME280;52177;55.968;37.498;2022-12-18T01:54:47;99186.34;;;-5.34;80.92
65546;BME280;52177;55.968;37.498;2022-12-18T01:55:19;99192.38;;;-5.33;80.88
65546;BME280;52177;55.968;37.498;2022-12-18T01:55:51;99188.75;;;-5.31;80.98
65546;BME280;52177;55.968;37.498;2022-12-18T01:56:22;99194.41;;;-5.38;80.62
65546;BME280;52177;55.968;37.498;2022-12-18T01:56:52;99178.97;;;-5.41;80.67
65546;BME280;52177;55.968;37.498;2022-12-18T01:57:23;99189.38;;;-5.41;80.82
65546;BME280;52177;55.968;37.498;2022-12-18T01:57:54;99188.63;;;-5.43;80.83
65546;BME280;52177;55.968;37.498;2022-12-18T01:59:05;99182.84;;;-5.48;80.79
65546;BME280;52177;55.968;37.498;2022-12-18T01:59:39;99188.81;;;-5.46;80.96
65546;BME280;52177;55.968;37.498;2022-12-18T02:00:13;99187.16;;;-5.47;80.95
65546;BME280;52177;55.968;37.498;2022-12-18T02:00:44;99182.69;;;-5.45;80.96
65546;BME280;52177;55.968;37.498;2022-12-18T02:01:14;99181.84;;;-5.46;81.17
65546;BME280;52177;55.968;37.498;2022-12-18T02:01:44;99187.97;;;-5.47;81.01
65546;BME280;52177;55.968;37.498;2022-12-18T02:02:15;99189.75;;;-5.47;81.07
65546;BME280;52177;55.968;37.498;2022-12-18T02:02:46;99187.16;;;-5.47;81.14
65546;BME280;52177;55.968;37.498;2022-12-18T02:03:17;99192.34;;;-5.47;81.18
65546;BME280;52177;55.968;37.498;2022-12-18T02:03:47;99195.09;;;-5.51;81.27
65546;BME280;52177;55.968;37.498;2022-12-18T02:04:21;99189.81;;;-5.49;81.12
65546;BME280;52177;55.968;37.498;2022-12-18T02:04:51;99192.22;;;-5.46;81.30
65546;BME280;52177;55.968;37.498;2022-12-18T02:06:05;99188.63;;;-5.43;81.21
65546;BME280;52177;55.968;37.498;2022-12-18T02:06:16;99191.22;;;-5.43;80.98
65546;BME280;52177;55.968;37.498;2022-12-18T02:07:11;99191.22;;;-5.43;81.20
65546;BME280;52177;55.968;37.498;2022-12-18T02:07:59;99187.72;;;-5.42;81.04
65546;BME280;52177;55.968;37.498;2022-12-18T02:08:42;99184.16;;;-5.41;80.99
65546;BME280;52177;55.968;37.498;2022-12-18T02:09:19;99186.63;;;-5.38;80.86
65546;BME280;52177;55.968;37.498;2022-12-18T02:09:56;99184.84;;;-5.38;80.86
65546;BME280;52177;55.968;37.498;2022-12-18T02:10:30;99190.22;;;-5.41;80.63
65546;BME280;52177;55.968;37.498;2022-12-18T02:11:07;99189.38;;;-5.41;80.68
65546;BME280;52177;55.968;37.498;2022-12-18T02:11:45;99195.44;;;-5.41;80.55
65546;BME280;52177;55.968;37.498;2022-12-18T02:12:23;99187.03;;;-5.46;80.43
65546;BME280;52177;55.968;37.498;2022-12-18T02:13:01;99189.00;;;-5.49;80.72
65546;BME280;52177;55.968;37.498;2022-12-18T02:15:07;99187.41;;;-5.52;80.53
65546;BME280;52177;55.968;37.498;2022-12-18T02:16:00;99188.31;;;-5.53;80.62
65546;BME280;52177;55.968;37.498;2022-12-18T02:17:50;99194.53;;;-5.56;81.07
65546;BME280;52177;55.968;37.498;2022-12-18T02:18:30;99199.97;;;-5.60;80.88
65546;BME280;52177;55.968;37.498;2022-12-18T02:19:06;99190.34;;;-5.58;80.92
65546;BME280;52177;55.968;37.498;2022-12-18T02:20:20;99192.84;;;-5.57;80.92
65546;BME280;52177;55.968;37.498;2022-12-18T02:20:58;99195.28;;;-5.54;81.18
65546;BME280;52177;55.968;37.498;2022-12-18T02:25:05;99202.72;;;-5.47;80.81
65546;BME280;52177;55.968;37.498;2022-12-18T02:26:36;99195.28;;;-5.54;80.72
65546;BME280;52177;55.968;37.498;2022-12-18T02:27:08;99196.94;;;-5.53;80.91
65546;BME280;52177;55.968;37.498;2022-12-18T02:27:39;99197.69;;;-5.51;80.81
65546;BME280;52177;55.968;37.498;2022-12-18T02:28:11;99200.28;;;-5.51;80.67
65546;BME280;52177;55.968;37.498;2022-12-18T02:28:45;99201.22;;;-5.52;80.73
65546;BME280;52177;55.968;37.498;2022-12-18T02:29:23;99195.94;;;-5.50;80.82
65546;BME280;52177;55.968;37.498;2022-12-18T02:29:57;99212.50;;;-5.53;80.56
65546;BME280;52177;55.968;37.498;2022-12-18T02:30:30;99205.66;;;-5.54;80.55
65546;BME280;52177;55.968;37.498;2022-12-18T02:31:02;99210.03;;;-5.54;80.59
65546;BME280;52177;55.968;37.498;2022-12-18T02:31:35;99202.31;;;-5.56;80.65
65546;BME280;52177;55.968;37.498;2022-12-18T02:32:08;99204.91;;;-5.56;80.76
65546;BME280;52177;55.968;37.498;2022-12-18T02:32:41;99206.75;;;-5.58;80.72
65546;BME280;52177;55.968;37.498;2022-12-18T02:33:12;99203.13;;;-5.55;80.89
65546;BME280;52177;55.968;37.498;2022-12-18T02:33:43;99207.50;;;-5.56;80.81
65546;BME280;52177;55.968;37.498;2022-12-18T02:34:15;99199.63;;;-5.54;80.71
65546;BME280;52177;55.968;37.498;2022-12-18T02:34:47;99199.38;;;-5.49;80.79
65546;BME280;52177;55.968;37.498;2022-12-18T02:35:25;99213.19;;;-5.49;80.70
65546;BME280;52177;55.968;37.498;2022-12-18T02:35:57;99198.69;;;-5.53;80.57
65546;BME280;52177;55.968;37.498;2022-12-18T02:36:29;99207.63;;;-5.57;80.57
65546;BME280;52177;55.968;37.498;2022-12-18T02:37:02;99213.78;;;-5.60;80.55
65546;BME280;52177;55.968;37.498;2022-12-18T02:37:33;99200.66;;;-5.57;80.79
65546;BME280;52177;55.968;37.498;2022-12-18T02:38:04;99203.13;;;-5.55;80.84
65546;BME280;52177;55.968;37.498;2022-12-18T02:38:34;99203.13;;;-5.55;80.72
65546;BME280;52177;55.968;37.498;2022-12-18T02:39:05;99203.13;;;-5.55;80.62
65546;BME280;52177;55.968;37.498;2022-12-18T02:39:37;99197.13;;;-5.56;80.76
65546;BME280;52177;55.968;37.498;2022-12-18T02:40:08;99198.69;;;-5.53;80.61
65546;BME280;52177;55.968;37.498;2022-12-18T02:40:39;99197.88;;;-5.54;80.78
65546;BME280;52177;55.968;37.498;2022-12-18T02:41:10;99202.31;;;-5.56;80.60
65546;BME280;52177;55.968;37.498;2022-12-18T02:41:41;99206.59;;;-5.55;80.81
65546;BME280;52177;55.968;37.498;2022-12-18T02:42:12;99204.00;;;-5.55;80.74
65546;BME280;52177;55.968;37.498;2022-12-18T02:42:42;99210.84;;;-5.54;80.67
65546;BME280;52177;55.968;37.498;2022-12-18T02:43:13;99200.47;;;-5.54;80.62
65546;BME280;52177;55.968;37.498;2022-12-18T02:43:55;99202.13;;;-5.53;80.63
65546;BME280;52177;55.968;37.498;2022-12-18T02:44:26;99203.06;;;-5.54;80.58
65546;BME280;52177;55.968;37.498;2022-12-18T02:44:56;99196.22;;;-5.55;80.50
65546;BME280;52177;55.968;37.498;2022-12-18T02:45:27;99193.63;;;-5.55;80.61
65546;BME280;52177;55.968;37.498;2022-12-18T02:45:58;99197.94;;;-5.55;80.74
65546;BME280;52177;55.968;37.498;2022-12-18T02:46:35;99197.88;;;-5.54;80.56
65546;BME280;52177;55.968;37.498;2022-12-18T02:47:08;99195.19;;;-5.52;80.52
65546;BME280;52177;55.968;37.498;2022-12-18T02:47:40;99189.00;;;-5.49;80.56
65546;BME280;52177;55.968;37.498;2022-12-18T02:48:12;99191.00;;;-5.55;80.35
65546;BME280;52177;55.968;37.498;2022-12-18T02:48:42;99189.50;;;-5.59;80.41
65546;BME280;52177;55.968;37.498;2022-12-18T02:49:31;99193.75;;;-5.58;80.37
65546;BME280;52177;55.968;37.498;2022-12-18T02:50:11;99199.06;;;-5.59;80.57
65546;BME280;52177;55.968;37.498;2022-12-18T02:50:50;99185.91;;;-5.56;80.33
65546;BME280;52177;55.968;37.498;2022-12-18T02:51:59;99192.84;;;-5.57;80.47
65546;BME280;52177;55.968;37.498;2022-12-18T02:52:33;99199.97;;;-5.60;80.30
65546;BME280;52177;55.968;37.498;2022-12-18T02:53:55;99190.59;;;-5.63;80.32
65546;BME280;52177;55.968;37.498;2022-12-18T02:55:58;99196.78;;;-5.49;80.37
65546;BME280;52177;55.968;37.498;2022-12-18T02:56:36;99191.91;;;-5.56;80.09
65546;BME280;52177;55.968;37.498;2022-12-18T02:57:12;99192.03;;;-5.57;80.03
65546;BME280;52177;55.968;37.498;2022-12-18T02:57:55;99195.47;;;-5.57;79.99
65546;BME280;52177;55.968;37.498;2022-12-18T02:59:04;99195.78;;;-5.63;80.04
65546;BME280;52177;55.968;37.498;2022-12-18T02:59:47;99195.59;;;-5.60;79.93
65546;BME280;52177;55.968;37.498;2022-12-18T03:00:21;99194.78;;;-5.60;79.91
65546;BME280;52177;55.968;37.498;2022-12-18T03:02:22;99185.31;;;-5.61;79.83
65546;BME280;52177;55.968;37.498;2022-12-18T03:02:57;99191.28;;;-5.59;79.87
65546;BME280;52177;55.968;37.498;2022-12-18T03:03:35;99191.00;;;-5.55;79.89
65546;BME280;52177;55.968;37.498;2022-12-18T03:04:12;99186.09;;;-5.59;79.71